VOZ259 YMML-YSCB
Flight info
| Callsign | VOZ259 |
|---|---|
| Flight time | 0h 48m |
| Altitude | 33000 |
| Route | DOSEL Y59 ARRAN |
| Aircraft | B738/M-SDE2E3FGHIRWXY/LB1 |
Departure
| Time | 2026-04-30 20:36 |
|---|---|
| Airport | Melbourne Airport (YMML) |
Arrival
| Time | 2026-04-30 21:25 |
|---|---|
| Airport | Canberra Airport (YSCB) |
| Time | Latitude | Longitude | Altitude | Speed | Heading |
|---|---|---|---|---|---|
| 2026-04-30 19:59 | -37.67055 | 144.84722 | 391 ft | 0 kts | 170° |
| 2026-04-30 20:26 | -37.67009 | 144.84713 | 392 ft | 4 kts | 170° |
| 2026-04-30 20:26 | -37.66966 | 144.84703 | 392 ft | 0 kts | 170° |
| 2026-04-30 20:30 | -37.66968 | 144.84704 | 392 ft | 2 kts | 170° |
| 2026-04-30 20:30 | -37.67014 | 144.84540 | 389 ft | 16 kts | 267° |
| 2026-04-30 20:31 | -37.67106 | 144.84254 | 384 ft | 13 kts | 181° |
| 2026-04-30 20:32 | -37.67434 | 144.84314 | 378 ft | 19 kts | 172° |
| 2026-04-30 20:32 | -37.67718 | 144.84368 | 369 ft | 22 kts | 172° |
| 2026-04-30 20:33 | -37.67881 | 144.84396 | 363 ft | 25 kts | 171° |
| 2026-04-30 20:33 | -37.68248 | 144.84466 | 352 ft | 26 kts | 172° |
| 2026-04-30 20:33 | -37.68357 | 144.84460 | 353 ft | 15 kts | 202° |
| 2026-04-30 20:34 | -37.68519 | 144.84325 | 340 ft | 7 kts | 214° |
| 2026-04-30 20:34 | -37.68552 | 144.84206 | 340 ft | 7 kts | 267° |
| 2026-04-30 20:35 | -37.68538 | 144.84145 | 347 ft | 7 kts | 307° |
| 2026-04-30 20:35 | -37.68505 | 144.84100 | 353 ft | 7 kts | 324° |
| 2026-04-30 20:35 | -37.68406 | 144.84069 | 351 ft | 8 kts | 351° |
| 2026-04-30 20:36 | -37.68235 | 144.84037 | 356 ft | 56 kts | 352° |
| 2026-04-30 20:36 | -37.67872 | 144.83970 | 359 ft | 101 kts | 351° |
| 2026-04-30 20:36 | -37.65989 | 144.83624 | 1163 ft | 146 kts | 354° |
| 2026-04-30 20:37 | -37.64658 | 144.83377 | 2324 ft | 147 kts | 351° |
| 2026-04-30 20:37 | -37.63574 | 144.83122 | 2821 ft | 169 kts | 350° |
| 2026-04-30 20:37 | -37.62330 | 144.82834 | 3066 ft | 195 kts | 351° |
| 2026-04-30 20:37 | -37.60939 | 144.82532 | 3501 ft | 209 kts | 351° |
| 2026-04-30 20:38 | -37.59935 | 144.82354 | 3558 ft | 230 kts | 357° |
| 2026-04-30 20:38 | -37.58306 | 144.82743 | 4099 ft | 244 kts | 16° |
| 2026-04-30 20:38 | -37.56715 | 144.83590 | 5111 ft | 246 kts | 21° |
| 2026-04-30 20:39 | -37.53630 | 144.85543 | 6779 ft | 254 kts | 22° |
| 2026-04-30 20:39 | -37.52026 | 144.86556 | 7490 ft | 262 kts | 22° |
| 2026-04-30 20:39 | -37.50376 | 144.87580 | 8270 ft | 267 kts | 22° |
| 2026-04-30 20:40 | -37.46973 | 144.89658 | 9795 ft | 277 kts | 22° |
| 2026-04-30 20:40 | -37.45207 | 144.90728 | 10425 ft | 288 kts | 23° |
| 2026-04-30 20:40 | -37.43434 | 144.92143 | 10591 ft | 318 kts | 43° |
| 2026-04-30 20:41 | -37.40680 | 144.96783 | 11778 ft | 338 kts | 52° |
| 2026-04-30 20:41 | -37.39330 | 144.99218 | 12529 ft | 342 kts | 52° |
| 2026-04-30 20:41 | -37.37964 | 145.01678 | 13263 ft | 346 kts | 52° |
| 2026-04-30 20:41 | -37.36586 | 145.04145 | 14030 ft | 351 kts | 52° |
| 2026-04-30 20:42 | -37.35191 | 145.06667 | 14902 ft | 349 kts | 53° |
| 2026-04-30 20:42 | -37.33813 | 145.09186 | 15694 ft | 353 kts | 52° |
| 2026-04-30 20:42 | -37.30893 | 145.14295 | 17072 ft | 364 kts | 51° |
| 2026-04-30 20:43 | -37.29405 | 145.16885 | 17845 ft | 367 kts | 52° |
| 2026-04-30 20:43 | -37.27911 | 145.19493 | 18604 ft | 370 kts | 52° |
| 2026-04-30 20:43 | -37.26402 | 145.22135 | 19246 ft | 373 kts | 52° |
| 2026-04-30 20:44 | -37.23366 | 145.27463 | 20503 ft | 380 kts | 52° |
| 2026-04-30 20:44 | -37.21822 | 145.30172 | 21132 ft | 384 kts | 52° |
| 2026-04-30 20:44 | -37.18666 | 145.35707 | 22350 ft | 391 kts | 51° |
| 2026-04-30 20:45 | -37.15485 | 145.41268 | 23533 ft | 398 kts | 51° |
| 2026-04-30 20:45 | -37.13865 | 145.44093 | 24084 ft | 401 kts | 51° |
| 2026-04-30 20:45 | -37.12230 | 145.46943 | 24544 ft | 404 kts | 51° |
| 2026-04-30 20:46 | -37.07237 | 145.55632 | 25909 ft | 414 kts | 51° |
| 2026-04-30 20:46 | -37.05571 | 145.58530 | 26332 ft | 417 kts | 51° |
| 2026-04-30 20:47 | -37.02142 | 145.64483 | 27182 ft | 424 kts | 51° |
| 2026-04-30 20:47 | -37.00412 | 145.67484 | 27600 ft | 427 kts | 51° |
| 2026-04-30 20:48 | -36.96905 | 145.73559 | 28409 ft | 433 kts | 51° |
| 2026-04-30 20:48 | -36.95142 | 145.76609 | 28898 ft | 433 kts | 51° |
| 2026-04-30 20:48 | -36.93377 | 145.79660 | 29472 ft | 432 kts | 51° |
| 2026-04-30 20:48 | -36.91606 | 145.82721 | 30047 ft | 431 kts | 51° |
| 2026-04-30 20:49 | -36.89856 | 145.85740 | 30532 ft | 431 kts | 51° |
| 2026-04-30 20:49 | -36.88096 | 145.88774 | 30959 ft | 431 kts | 51° |
| 2026-04-30 20:49 | -36.86359 | 145.91766 | 31428 ft | 429 kts | 51° |
| 2026-04-30 20:50 | -36.82866 | 145.97773 | 32382 ft | 426 kts | 51° |
| 2026-04-30 20:50 | -36.81123 | 146.00765 | 32824 ft | 425 kts | 51° |
| 2026-04-30 20:50 | -36.79386 | 146.03746 | 33274 ft | 424 kts | 51° |
| 2026-04-30 20:51 | -36.75892 | 146.09730 | 33373 ft | 427 kts | 51° |
| 2026-04-30 20:51 | -36.70708 | 146.18596 | 33380 ft | 420 kts | 50° |
| 2026-04-30 20:52 | -36.67258 | 146.24481 | 33388 ft | 421 kts | 50° |
| 2026-04-30 20:53 | -36.62065 | 146.33318 | 33387 ft | 422 kts | 50° |
| 2026-04-30 20:53 | -36.58598 | 146.39208 | 33394 ft | 421 kts | 50° |
| 2026-04-30 20:54 | -36.53426 | 146.47976 | 33392 ft | 420 kts | 50° |
| 2026-04-30 20:55 | -36.48238 | 146.56747 | 33394 ft | 419 kts | 50° |
| 2026-04-30 20:55 | -36.44789 | 146.62565 | 33394 ft | 418 kts | 50° |
| 2026-04-30 20:56 | -36.39619 | 146.71269 | 33401 ft | 417 kts | 50° |
| 2026-04-30 20:57 | -36.34531 | 146.79812 | 33398 ft | 417 kts | 50° |
| 2026-04-30 20:57 | -36.31076 | 146.85602 | 33403 ft | 417 kts | 50° |
| 2026-04-30 20:58 | -36.25894 | 146.94268 | 33409 ft | 417 kts | 50° |
| 2026-04-30 20:58 | -36.22461 | 146.99998 | 33407 ft | 417 kts | 50° |
| 2026-04-30 20:59 | -36.17331 | 147.08544 | 33412 ft | 410 kts | 50° |
| 2026-04-30 21:00 | -36.13910 | 147.14224 | 33083 ft | 412 kts | 50° |
| 2026-04-30 21:00 | -36.10531 | 147.19837 | 32371 ft | 402 kts | 50° |
| 2026-04-30 21:01 | -36.07215 | 147.25333 | 31591 ft | 397 kts | 50° |
| 2026-04-30 21:01 | -36.05566 | 147.28063 | 31210 ft | 395 kts | 50° |
| 2026-04-30 21:02 | -36.00935 | 147.35716 | 30061 ft | 389 kts | 50° |
| 2026-04-30 21:02 | -35.99322 | 147.38380 | 29643 ft | 386 kts | 50° |
| 2026-04-30 21:02 | -35.97715 | 147.41031 | 29227 ft | 383 kts | 50° |
| 2026-04-30 21:02 | -35.96120 | 147.43660 | 28826 ft | 380 kts | 50° |
| 2026-04-30 21:03 | -35.94536 | 147.46268 | 28434 ft | 377 kts | 50° |
| 2026-04-30 21:03 | -35.92993 | 147.48807 | 28049 ft | 374 kts | 50° |
| 2026-04-30 21:03 | -35.91415 | 147.51403 | 27660 ft | 371 kts | 50° |
| 2026-04-30 21:03 | -35.89893 | 147.53904 | 27284 ft | 369 kts | 50° |
| 2026-04-30 21:04 | -35.88351 | 147.56436 | 26908 ft | 369 kts | 50° |
| 2026-04-30 21:04 | -35.86815 | 147.58956 | 26529 ft | 368 kts | 50° |
| 2026-04-30 21:04 | -35.83946 | 147.64153 | 25736 ft | 370 kts | 65° |
| 2026-04-30 21:05 | -35.83345 | 147.67245 | 25394 ft | 371 kts | 78° |
| 2026-04-30 21:05 | -35.83007 | 147.70395 | 24990 ft | 371 kts | 80° |
| 2026-04-30 21:05 | -35.82713 | 147.73555 | 24616 ft | 370 kts | 81° |
| 2026-04-30 21:05 | -35.82427 | 147.76701 | 24227 ft | 369 kts | 80° |
| 2026-04-30 21:06 | -35.82133 | 147.79845 | 23805 ft | 368 kts | 80° |
| 2026-04-30 21:06 | -35.81832 | 147.82964 | 23386 ft | 366 kts | 80° |
| 2026-04-30 21:06 | -35.81523 | 147.86074 | 22987 ft | 363 kts | 80° |
| 2026-04-30 21:06 | -35.81212 | 147.89148 | 22603 ft | 360 kts | 80° |
| 2026-04-30 21:07 | -35.80900 | 147.92193 | 22232 ft | 357 kts | 80° |
| 2026-04-30 21:07 | -35.80587 | 147.95219 | 21860 ft | 355 kts | 80° |
| 2026-04-30 21:07 | -35.80279 | 147.98190 | 21501 ft | 352 kts | 80° |
| 2026-04-30 21:07 | -35.79964 | 148.01208 | 21135 ft | 350 kts | 80° |
| 2026-04-30 21:08 | -35.79654 | 148.04175 | 20776 ft | 348 kts | 80° |
| 2026-04-30 21:08 | -35.79345 | 148.07129 | 20412 ft | 346 kts | 80° |
| 2026-04-30 21:08 | -35.79038 | 148.10052 | 20050 ft | 344 kts | 80° |
| 2026-04-30 21:08 | -35.78730 | 148.12979 | 19697 ft | 343 kts | 81° |
| 2026-04-30 21:09 | -35.78427 | 148.15844 | 19341 ft | 342 kts | 81° |
| 2026-04-30 21:09 | -35.78120 | 148.18745 | 18974 ft | 341 kts | 81° |
| 2026-04-30 21:09 | -35.77814 | 148.21635 | 18584 ft | 341 kts | 81° |
| 2026-04-30 21:09 | -35.77507 | 148.24528 | 18192 ft | 339 kts | 81° |
| 2026-04-30 21:10 | -35.77202 | 148.27386 | 17822 ft | 337 kts | 81° |
| 2026-04-30 21:10 | -35.76898 | 148.30237 | 17465 ft | 334 kts | 81° |
| 2026-04-30 21:10 | -35.76596 | 148.33064 | 17117 ft | 332 kts | 81° |
| 2026-04-30 21:10 | -35.76294 | 148.35880 | 16759 ft | 330 kts | 81° |
| 2026-04-30 21:11 | -35.75992 | 148.38690 | 16411 ft | 328 kts | 81° |
| 2026-04-30 21:11 | -35.75693 | 148.41472 | 16064 ft | 326 kts | 81° |
| 2026-04-30 21:11 | -35.75395 | 148.44231 | 15721 ft | 324 kts | 81° |
| 2026-04-30 21:11 | -35.75098 | 148.46980 | 15385 ft | 323 kts | 81° |
| 2026-04-30 21:12 | -35.74802 | 148.49707 | 15040 ft | 321 kts | 81° |
| 2026-04-30 21:12 | -35.74508 | 148.52429 | 14698 ft | 320 kts | 81° |
| 2026-04-30 21:12 | -35.74217 | 148.55104 | 14362 ft | 318 kts | 81° |
| 2026-04-30 21:12 | -35.73922 | 148.57802 | 13997 ft | 317 kts | 81° |
| 2026-04-30 21:13 | -35.73577 | 148.60472 | 13624 ft | 314 kts | 75° |
| 2026-04-30 21:13 | -35.72918 | 148.63024 | 13269 ft | 312 kts | 69° |
| 2026-04-30 21:13 | -35.72145 | 148.65503 | 12927 ft | 309 kts | 68° |
| 2026-04-30 21:13 | -35.71364 | 148.67960 | 12584 ft | 307 kts | 68° |
| 2026-04-30 21:14 | -35.70600 | 148.70410 | 12246 ft | 305 kts | 69° |
| 2026-04-30 21:14 | -35.69856 | 148.72852 | 11909 ft | 303 kts | 69° |
| 2026-04-30 21:14 | -35.69138 | 148.75244 | 11583 ft | 301 kts | 69° |
| 2026-04-30 21:14 | -35.68409 | 148.77688 | 11249 ft | 299 kts | 70° |
| 2026-04-30 21:15 | -35.67695 | 148.80084 | 10852 ft | 300 kts | 70° |
| 2026-04-30 21:15 | -35.66976 | 148.82499 | 10287 ft | 302 kts | 70° |
| 2026-04-30 21:15 | -35.66263 | 148.84894 | 10060 ft | 287 kts | 70° |
| 2026-04-30 21:15 | -35.65599 | 148.87118 | 9773 ft | 277 kts | 70° |
| 2026-04-30 21:16 | -35.64935 | 148.89341 | 9483 ft | 275 kts | 69° |
| 2026-04-30 21:16 | -35.64282 | 148.91528 | 9188 ft | 273 kts | 69° |
| 2026-04-30 21:16 | -35.63625 | 148.93721 | 8908 ft | 271 kts | 69° |
| 2026-04-30 21:16 | -35.62976 | 148.95890 | 8612 ft | 270 kts | 69° |
| 2026-04-30 21:17 | -35.62327 | 148.98059 | 8332 ft | 269 kts | 69° |
| 2026-04-30 21:17 | -35.61682 | 149.00210 | 8055 ft | 268 kts | 69° |
| 2026-04-30 21:17 | -35.61038 | 149.02358 | 7760 ft | 267 kts | 69° |
| 2026-04-30 21:17 | -35.60395 | 149.04496 | 7467 ft | 266 kts | 69° |
| 2026-04-30 21:18 | -35.59754 | 149.06623 | 7178 ft | 265 kts | 68° |
| 2026-04-30 21:18 | -35.59084 | 149.08733 | 6956 ft | 262 kts | 68° |
| 2026-04-30 21:18 | -35.58424 | 149.10784 | 6824 ft | 254 kts | 68° |
| 2026-04-30 21:18 | -35.57782 | 149.12778 | 6701 ft | 247 kts | 68° |
| 2026-04-30 21:19 | -35.57159 | 149.14714 | 6584 ft | 239 kts | 67° |
| 2026-04-30 21:19 | -35.56551 | 149.16580 | 6482 ft | 231 kts | 63° |
| 2026-04-30 21:19 | -35.55564 | 149.18043 | 6292 ft | 225 kts | 34° |
| 2026-04-30 21:19 | -35.54177 | 149.18946 | 6088 ft | 222 kts | 23° |
| 2026-04-30 21:20 | -35.52716 | 149.19486 | 5860 ft | 219 kts | 2° |
| 2026-04-30 21:20 | -35.51243 | 149.19438 | 5744 ft | 208 kts | 359° |
| 2026-04-30 21:20 | -35.49836 | 149.19435 | 5522 ft | 202 kts | 0° |
| 2026-04-30 21:20 | -35.48436 | 149.19441 | 5252 ft | 199 kts | 0° |
| 2026-04-30 21:21 | -35.47069 | 149.19444 | 4962 ft | 193 kts | 0° |
| 2026-04-30 21:21 | -35.45756 | 149.19444 | 4700 ft | 185 kts | 0° |
| 2026-04-30 21:21 | -35.43278 | 149.19444 | 4233 ft | 171 kts | 0° |
| 2026-04-30 21:22 | -35.42099 | 149.19444 | 4019 ft | 169 kts | 0° |
| 2026-04-30 21:22 | -35.38899 | 149.19444 | 3402 ft | 146 kts | 1° |
| 2026-04-30 21:23 | -35.37890 | 149.19444 | 3190 ft | 146 kts | 0° |
| 2026-04-30 21:23 | -35.36872 | 149.19444 | 2963 ft | 146 kts | 0° |
| 2026-04-30 21:23 | -35.34864 | 149.19444 | 2556 ft | 144 kts | 1° |
| 2026-04-30 21:24 | -35.33877 | 149.19431 | 2372 ft | 141 kts | 0° |
| 2026-04-30 21:24 | -35.32888 | 149.19438 | 2196 ft | 143 kts | 1° |
| 2026-04-30 21:24 | -35.31898 | 149.19434 | 2002 ft | 141 kts | 2° |
| 2026-04-30 21:24 | -35.30926 | 149.19437 | 1887 ft | 133 kts | 1° |
| 2026-04-30 21:25 | -35.29741 | 149.19444 | 1880 ft | 36 kts | 359° |
| 2026-04-30 21:25 | -35.29602 | 149.19421 | 1881 ft | 17 kts | 326° |
| 2026-04-30 21:25 | -35.29581 | 149.19333 | 1884 ft | 10 kts | 272° |
| 2026-04-30 21:26 | -35.29662 | 149.19236 | 1883 ft | 11 kts | 179° |
| 2026-04-30 21:26 | -35.29742 | 149.19237 | 1878 ft | 12 kts | 180° |
| 2026-04-30 21:27 | -35.29909 | 149.19238 | 1876 ft | 12 kts | 179° |
| 2026-04-30 21:27 | -35.29990 | 149.19239 | 1877 ft | 11 kts | 180° |
| 2026-04-30 21:27 | -35.30066 | 149.19239 | 1877 ft | 8 kts | 180° |
| 2026-04-30 21:28 | -35.30152 | 149.19241 | 1876 ft | 5 kts | 187° |
| 2026-04-30 21:28 | -35.30166 | 149.19231 | 1876 ft | 3 kts | 216° |
| 2026-04-30 21:28 | -35.30245 | 149.19150 | 1875 ft | 11 kts | 219° |
| 2026-04-30 21:29 | -35.30307 | 149.19087 | 1872 ft | 13 kts | 219° |
| 2026-04-30 21:29 | -35.30383 | 149.19010 | 1873 ft | 2 kts | 218° |
| 2026-04-30 21:30 | -35.30426 | 149.18992 | 1873 ft | 4 kts | 182° |
| 2026-04-30 21:31 | -35.30516 | 149.19007 | 1878 ft | 6 kts | 169° |
| 2026-04-30 21:31 | -35.30572 | 149.19068 | 1882 ft | 5 kts | 130° |
| 2026-04-30 21:32 | -35.30592 | 149.19097 | 1877 ft | 2 kts | 129° |
| 2026-04-30 21:32 | -35.30600 | 149.19109 | 1880 ft | 2 kts | 129° |
| 2026-04-30 21:32 | -35.30608 | 149.19121 | 1878 ft | 2 kts | 129° |
| 2026-04-30 21:32 | -35.30615 | 149.19132 | 1884 ft | 2 kts | 129° |
| 2026-04-30 21:33 | -35.30622 | 149.19142 | 1884 ft | 2 kts | 130° |
| 2026-04-30 21:33 | -35.30651 | 149.19183 | 1879 ft | 4 kts | 130° |
| 2026-04-30 21:33 | -35.30670 | 149.19188 | 1881 ft | 2 kts | 191° |
| 2026-04-30 21:34 | -35.30683 | 149.19177 | 1880 ft | 0 kts | 219° |
| 2026-04-30 21:34 | -35.30707 | 149.19157 | 1881 ft | 2 kts | 215° |
| 2026-04-30 21:34 | -35.30710 | 149.19154 | 1880 ft | 0 kts | 215° |